createdAt,value
2023-05-01T00:01:35.229Z,100.00
2023-05-01T00:04:38.684Z,100.00
2023-05-01T00:07:40.952Z,100.00
2023-05-01T00:10:44.359Z,100.00
2023-05-01T00:13:47.168Z,100.00
2023-05-01T00:16:49.943Z,100.00
2023-05-01T00:19:53.437Z,100.00
2023-05-01T00:22:56.351Z,100.00
2023-05-01T00:25:58.696Z,100.00
2023-05-01T00:29:01.560Z,100.00
2023-05-01T00:32:05.750Z,100.00
2023-05-01T00:35:08.686Z,100.00
2023-05-01T00:38:10.955Z,100.00
2023-05-01T00:41:13.693Z,100.00
2023-05-01T00:44:16.739Z,100.00
2023-05-01T00:47:19.822Z,100.00
2023-05-01T00:50:22.402Z,100.00
2023-05-01T00:53:26.393Z,100.00
2023-05-01T00:56:29.510Z,100.00
2023-05-01T00:59:32.086Z,100.00
2023-05-01T01:02:34.465Z,100.00
2023-05-01T01:05:40.933Z,100.00
2023-05-01T01:08:46.453Z,100.00
2023-05-01T01:11:56.497Z,100.00
2023-05-01T01:15:08.172Z,100.00
2023-05-01T01:18:19.368Z,100.00
2023-05-01T01:21:42.938Z,100.00
2023-05-01T01:24:45.973Z,100.00
2023-05-01T01:28:07.368Z,100.00
2023-05-01T01:31:13.481Z,100.00
2023-05-01T01:34:20.616Z,100.00
2023-05-01T01:37:23.182Z,100.00
2023-05-01T01:40:27.898Z,100.00
2023-05-01T01:43:36.096Z,100.00
2023-05-01T01:46:41.309Z,100.00
2023-05-01T01:49:49.917Z,100.00
2023-05-01T01:52:53.392Z,100.00
2023-05-01T01:55:58.087Z,100.00
2023-05-01T01:59:01.276Z,100.00
2023-05-01T02:02:05.306Z,100.00
2023-05-01T02:05:09.018Z,100.00
2023-05-01T02:08:11.609Z,100.00
2023-05-01T02:11:15.761Z,100.00
2023-05-01T02:14:18.895Z,100.00
2023-05-01T02:17:21.930Z,100.00
2023-05-01T02:20:25.020Z,100.00
2023-05-01T02:23:28.658Z,100.00
2023-05-01T02:26:31.956Z,100.00
2023-05-01T02:29:35.951Z,100.00
2023-05-01T02:32:39.141Z,100.00
2023-05-01T02:35:42.784Z,100.00
2023-05-01T02:38:47.184Z,100.00
2023-05-01T02:41:50.016Z,100.00
2023-05-01T02:45:04.391Z,100.00
2023-05-01T02:48:08.287Z,100.00
2023-05-01T02:51:12.011Z,100.00
2023-05-01T02:54:16.293Z,100.00
2023-05-01T02:57:20.403Z,100.00
2023-05-01T03:00:23.553Z,100.00
2023-05-01T03:03:27.842Z,100.00
2023-05-01T03:06:31.241Z,100.00
2023-05-01T03:09:34.038Z,100.00
2023-05-01T03:12:37.512Z,100.00
2023-05-01T03:15:40.378Z,100.00
2023-05-01T03:18:42.817Z,100.00
2023-05-01T03:21:45.571Z,100.00
2023-05-01T03:24:47.930Z,100.00
2023-05-01T03:27:50.544Z,100.00
2023-05-01T03:30:52.982Z,100.00
2023-05-01T03:33:55.932Z,100.00
2023-05-01T03:36:58.275Z,100.00
2023-05-01T03:40:01.833Z,100.00
2023-05-01T03:43:05.020Z,100.00
2023-05-01T03:46:08.567Z,100.00
2023-05-01T03:49:11.069Z,100.00
2023-05-01T03:52:14.610Z,100.00
2023-05-01T03:55:17.395Z,100.00
2023-05-01T03:58:22.314Z,100.00
2023-05-01T04:01:25.956Z,100.00
2023-05-01T04:04:29.790Z,100.00
2023-05-01T04:07:32.896Z,100.00
2023-05-01T04:10:36.129Z,100.00
2023-05-01T04:13:39.106Z,100.00
2023-05-01T04:16:42.023Z,100.00
2023-05-01T04:19:47.568Z,100.00
2023-05-01T04:22:50.262Z,100.00
2023-05-01T04:25:52.950Z,100.00
2023-05-01T04:28:55.823Z,100.00
2023-05-01T04:31:58.479Z,100.00
2023-05-01T04:35:01.335Z,100.00
2023-05-01T04:38:03.828Z,100.00
2023-05-01T04:41:06.627Z,100.00
2023-05-01T04:44:08.929Z,100.00
2023-05-01T04:47:11.724Z,100.00
2023-05-01T04:50:15.122Z,100.00
2023-05-01T04:53:17.836Z,100.00
2023-05-01T04:56:20.129Z,100.00
2023-05-01T04:59:23.326Z,100.00
2023-05-01T05:02:25.971Z,100.00
2023-05-01T05:05:29.345Z,100.00
2023-05-01T05:08:32.018Z,100.00
2023-05-01T05:11:35.804Z,100.00
2023-05-01T05:14:38.289Z,100.00
2023-05-01T05:17:41.544Z,100.00
2023-05-01T05:20:44.457Z,100.00
2023-05-01T05:23:47.341Z,100.00
2023-05-01T05:26:49.618Z,100.00
2023-05-01T05:29:52.333Z,100.00
2023-05-01T05:32:55.863Z,100.00
2023-05-01T05:35:58.843Z,100.00
2023-05-01T05:39:01.945Z,100.00
2023-05-01T05:42:04.625Z,100.00
2023-05-01T05:45:08.717Z,100.00
2023-05-01T05:48:11.688Z,100.00
2023-05-01T05:51:15.429Z,100.00
2023-05-01T05:54:18.155Z,100.00
2023-05-01T05:57:20.991Z,100.00
2023-05-01T06:00:24.104Z,100.00
2023-05-01T06:03:27.487Z,100.00
2023-05-01T06:06:31.514Z,100.00
2023-05-01T06:09:34.224Z,100.00
2023-05-01T06:12:41.996Z,100.00
2023-05-01T06:15:49.747Z,100.00
2023-05-01T06:18:52.565Z,100.00
2023-05-01T06:21:55.315Z,92.59
2023-05-01T06:24:57.857Z,88.64
2023-05-01T06:28:01.341Z,88.28
2023-05-01T06:31:05.565Z,85.59
2023-05-01T06:34:09.253Z,81.68
2023-05-01T06:37:12.090Z,75.38
2023-05-01T06:40:14.752Z,72.51
2023-05-01T06:43:17.205Z,73.83
2023-05-01T06:46:20.936Z,72.81
2023-05-01T06:49:24.210Z,73.96
2023-05-01T06:52:27.600Z,72.07
2023-05-01T06:55:32.699Z,69.97
2023-05-01T06:58:36.328Z,64.30
2023-05-01T07:01:38.754Z,64.31
2023-05-01T07:04:44.276Z,60.50
2023-05-01T07:07:58.034Z,60.49
2023-05-01T07:11:03.692Z,57.96
2023-05-01T07:14:06.077Z,54.91
2023-05-01T07:17:09.259Z,52.03
2023-05-01T07:20:12.643Z,51.24
2023-05-01T07:23:15.440Z,51.22
2023-05-01T07:26:18.046Z,44.62
2023-05-01T07:29:20.733Z,43.81
2023-05-01T07:32:23.152Z,44.07
2023-05-01T07:35:26.136Z,42.43
2023-05-01T07:38:28.429Z,38.19
2023-05-01T07:41:31.486Z,39.63
2023-05-01T07:44:33.740Z,39.03
2023-05-01T07:47:36.688Z,36.80
2023-05-01T07:50:39.403Z,37.26
2023-05-01T07:53:42.539Z,35.98
2023-05-01T07:56:44.948Z,35.91
2023-05-01T07:59:47.904Z,35.86
2023-05-01T08:02:51.800Z,34.86
2023-05-01T08:05:54.450Z,34.99
2023-05-01T08:08:56.765Z,33.60
2023-05-01T08:11:59.528Z,31.68
2023-05-01T08:15:02.125Z,31.76
2023-05-01T08:18:05.619Z,31.19
2023-05-01T08:21:08.116Z,31.06
2023-05-01T08:24:11.061Z,30.77
2023-05-01T08:27:13.445Z,31.03
2023-05-01T08:30:16.049Z,31.68
2023-05-01T08:33:19.150Z,31.37
2023-05-01T08:36:32.473Z,29.99
2023-05-01T08:39:34.954Z,28.56
2023-05-01T08:42:38.891Z,29.20
2023-05-01T08:45:42.627Z,27.25
2023-05-01T08:48:45.917Z,27.20
2023-05-01T08:51:50.739Z,26.57
2023-05-01T08:54:56.828Z,26.17
2023-05-01T08:57:59.804Z,25.41
2023-05-01T09:01:05.479Z,28.23
2023-05-01T09:04:09.872Z,27.24
2023-05-01T09:07:13.263Z,27.07
2023-05-01T09:10:16.361Z,26.40
2023-05-01T09:13:19.226Z,26.06
2023-05-01T09:16:22.030Z,27.42
2023-05-01T09:19:25.305Z,26.76
2023-05-01T09:22:27.921Z,24.80
2023-05-01T09:25:31.469Z,26.05
2023-05-01T09:28:46.992Z,23.11
2023-05-01T09:31:49.671Z,24.26
2023-05-01T09:34:52.252Z,26.29
2023-05-01T09:37:54.864Z,25.43
2023-05-01T09:41:03.808Z,24.65
2023-05-01T09:44:17.788Z,25.03
2023-05-01T09:47:23.205Z,23.29
2023-05-01T09:50:29.226Z,23.95
2023-05-01T09:53:38.304Z,23.94
2023-05-01T09:56:46.930Z,23.68
2023-05-01T10:00:02.125Z,25.80
2023-05-01T10:03:13.064Z,25.77
2023-05-01T10:06:27.477Z,23.63
2023-05-01T10:09:30.429Z,23.81
2023-05-01T10:12:33.498Z,23.44
2023-05-01T10:15:39.093Z,22.73
2023-05-01T10:18:43.749Z,22.48
2023-05-01T10:21:46.137Z,22.58
2023-05-01T10:24:49.096Z,23.99
2023-05-01T10:27:52.993Z,23.40
2023-05-01T10:30:56.154Z,22.40
2023-05-01T10:34:00.843Z,21.50
2023-05-01T10:37:09.808Z,23.98
2023-05-01T10:40:31.432Z,25.44
2023-05-01T10:43:34.247Z,23.70
2023-05-01T10:46:36.676Z,23.42
2023-05-01T10:49:58.848Z,22.49
2023-05-01T10:53:10.772Z,21.37
2023-05-01T10:56:26.595Z,23.06
2023-05-01T10:59:47.624Z,21.85
2023-05-01T11:02:50.510Z,22.24
2023-05-01T11:06:04.300Z,23.46
2023-05-01T11:09:35.785Z,21.85
2023-05-01T11:12:48.961Z,22.27
2023-05-01T11:15:51.857Z,24.36
2023-05-01T11:18:54.269Z,23.20
2023-05-01T11:21:57.139Z,21.56
2023-05-01T11:25:00.676Z,22.41
2023-05-01T11:28:04.183Z,21.92
2023-05-01T11:31:06.616Z,24.84
2023-05-01T11:34:10.015Z,24.47
2023-05-01T11:37:12.310Z,25.43
2023-05-01T11:40:31.774Z,22.97
2023-05-01T11:43:34.188Z,23.07
2023-05-01T11:46:36.875Z,21.96
2023-05-01T11:49:39.327Z,20.57
2023-05-01T11:52:46.184Z,22.92
2023-05-01T11:55:49.345Z,19.54
2023-05-01T11:58:53.695Z,18.71
2023-05-01T12:01:56.365Z,19.70
2023-05-01T12:05:13.992Z,18.47
2023-05-01T12:08:20.595Z,19.21
2023-05-01T12:11:24.099Z,18.15
2023-05-01T12:14:26.672Z,18.09
2023-05-01T12:17:30.705Z,18.37
2023-05-01T12:20:37.958Z,16.93
2023-05-01T12:23:40.526Z,17.64
2023-05-01T12:26:43.663Z,18.27
2023-05-01T12:29:47.328Z,17.77
2023-05-01T12:32:50.353Z,17.08
2023-05-01T12:35:53.049Z,18.68
2023-05-01T12:38:58.305Z,17.76
2023-05-01T12:42:00.922Z,19.15
2023-05-01T12:45:03.678Z,18.96
2023-05-01T12:48:13.731Z,17.25
2023-05-01T12:51:20.369Z,19.06
2023-05-01T12:54:43.597Z,18.73
2023-05-01T12:57:53.625Z,18.84
2023-05-01T13:00:56.312Z,19.66
2023-05-01T13:03:58.883Z,17.65
2023-05-01T13:07:01.873Z,16.42
2023-05-01T13:10:06.266Z,19.31
2023-05-01T13:13:09.200Z,16.41
2023-05-01T13:16:12.840Z,16.45
2023-05-01T13:19:26.149Z,16.82
2023-05-01T13:22:33.399Z,15.21
2023-05-01T13:25:36.131Z,14.95
2023-05-01T13:28:47.714Z,15.33
2023-05-01T13:31:51.461Z,17.89
2023-05-01T13:34:58.370Z,19.05
2023-05-01T13:38:03.656Z,17.26
2023-05-01T13:41:06.076Z,18.01
2023-05-01T13:44:13.015Z,17.78
2023-05-01T13:47:16.813Z,14.75
2023-05-01T13:50:19.846Z,15.70
2023-05-01T13:53:22.596Z,15.95
2023-05-01T13:56:25.507Z,15.07
2023-05-01T13:59:32.047Z,17.16
2023-05-01T14:02:37.464Z,15.55
2023-05-01T14:05:45.437Z,16.51
2023-05-01T14:08:48.445Z,15.98
2023-05-01T14:11:51.535Z,15.08
2023-05-01T14:14:53.968Z,15.44
2023-05-01T14:17:56.708Z,20.21
2023-05-01T14:20:59.650Z,21.55
2023-05-01T14:24:03.252Z,19.38
2023-05-01T14:27:08.200Z,21.34
2023-05-01T14:30:17.483Z,25.81
2023-05-01T14:33:20.221Z,26.20
2023-05-01T14:36:22.990Z,27.92
2023-05-01T14:39:32.329Z,29.31
2023-05-01T14:42:34.988Z,28.22
2023-05-01T14:45:40.500Z,27.76
2023-05-01T14:48:43.378Z,28.16
2023-05-01T14:51:45.767Z,28.80
2023-05-01T14:54:48.670Z,28.75
2023-05-01T14:57:50.972Z,27.71
2023-05-01T15:00:53.708Z,28.43
2023-05-01T15:03:56.487Z,28.09
2023-05-01T15:06:59.242Z,29.15
2023-05-01T15:10:01.884Z,28.83
2023-05-01T15:13:06.101Z,30.06
2023-05-01T15:16:09.524Z,30.88
2023-05-01T15:19:12.197Z,29.39
2023-05-01T15:22:14.694Z,30.96
2023-05-01T15:25:17.573Z,30.24
2023-05-01T15:28:19.966Z,30.79
2023-05-01T15:31:22.993Z,30.69
2023-05-01T15:34:25.701Z,30.89
2023-05-01T15:37:28.283Z,32.12
2023-05-01T15:40:30.844Z,32.11
2023-05-01T15:43:33.422Z,32.59
2023-05-01T15:46:36.573Z,31.98
2023-05-01T15:49:39.413Z,31.96
2023-05-01T15:52:41.885Z,32.17
2023-05-01T15:55:44.558Z,31.48
2023-05-01T15:58:47.447Z,32.47
2023-05-01T16:01:52.542Z,33.14
2023-05-01T16:04:55.420Z,32.94
2023-05-01T16:07:59.798Z,31.93
2023-05-01T16:11:03.654Z,32.85
2023-05-01T16:14:09.233Z,30.56
2023-05-01T16:17:11.947Z,30.99
2023-05-01T16:20:14.846Z,30.54
2023-05-01T16:23:17.646Z,31.99
2023-05-01T16:26:26.782Z,31.91
2023-05-01T16:29:34.117Z,32.36
2023-05-01T16:32:36.749Z,32.38
2023-05-01T16:35:40.520Z,32.63
2023-05-01T16:38:43.578Z,34.16
2023-05-01T16:41:47.427Z,33.81
2023-05-01T16:44:49.834Z,34.92
2023-05-01T16:47:52.711Z,34.90
2023-05-01T16:50:55.909Z,36.62
2023-05-01T16:53:58.978Z,36.71
2023-05-01T16:57:01.748Z,35.78
2023-05-01T17:00:05.400Z,38.16
2023-05-01T17:03:08.217Z,37.45
2023-05-01T17:06:10.983Z,38.16
2023-05-01T17:09:13.317Z,38.80
2023-05-01T17:12:29.265Z,38.18
2023-05-01T17:15:31.537Z,35.95
2023-05-01T17:18:34.411Z,36.27
2023-05-01T17:21:36.735Z,36.30
2023-05-01T17:24:39.423Z,35.66
2023-05-01T17:27:41.826Z,37.73
2023-05-01T17:30:44.643Z,38.00
2023-05-01T17:33:47.277Z,39.21
2023-05-01T17:36:50.085Z,40.22
2023-05-01T17:39:52.348Z,39.11
2023-05-01T17:42:54.931Z,37.75
2023-05-01T17:45:57.422Z,38.62
2023-05-01T17:49:00.223Z,37.82
2023-05-01T17:52:02.531Z,39.92
2023-05-01T17:55:06.204Z,38.98
2023-05-01T17:58:08.641Z,38.44
2023-05-01T18:01:11.385Z,39.83
2023-05-01T18:04:14.353Z,38.73
2023-05-01T18:07:17.121Z,40.30
2023-05-01T18:10:19.961Z,39.33
2023-05-01T18:13:27.884Z,39.93
2023-05-01T18:16:30.622Z,39.32
2023-05-01T18:19:32.977Z,39.33
2023-05-01T18:22:35.985Z,40.09
2023-05-01T18:25:39.297Z,40.08
2023-05-01T18:28:42.042Z,40.16
2023-05-01T18:31:44.406Z,40.83
2023-05-01T18:34:47.106Z,41.12
2023-05-01T18:37:50.948Z,41.85
2023-05-01T18:40:53.703Z,41.12
2023-05-01T18:43:57.821Z,41.52
2023-05-01T18:47:00.794Z,42.02
2023-05-01T18:50:03.083Z,42.31
2023-05-01T18:53:06.049Z,43.00
2023-05-01T18:56:09.580Z,42.48
2023-05-01T18:59:12.183Z,43.02
2023-05-01T19:02:14.431Z,43.03
2023-05-01T19:05:17.591Z,43.60
2023-05-01T19:08:20.046Z,43.93
2023-05-01T19:11:22.677Z,43.57
2023-05-01T19:14:24.898Z,44.12
2023-05-01T19:17:27.864Z,44.57
2023-05-01T19:20:30.233Z,44.57
2023-05-01T19:23:35.426Z,44.42
2023-05-01T19:26:37.804Z,44.66
2023-05-01T19:29:40.557Z,44.63
2023-05-01T19:32:42.881Z,45.01
2023-05-01T19:35:45.501Z,45.07
2023-05-01T19:38:47.933Z,45.13
2023-05-01T19:41:51.060Z,45.21
2023-05-01T19:44:53.462Z,45.69
2023-05-01T19:47:56.221Z,45.06
2023-05-01T19:50:58.737Z,45.53
2023-05-01T19:54:01.788Z,45.61
2023-05-01T19:57:04.576Z,45.70
2023-05-01T20:00:07.504Z,45.68
2023-05-01T20:03:12.994Z,48.37
2023-05-01T20:06:16.325Z,47.31
2023-05-01T20:09:18.679Z,47.33
2023-05-01T20:12:22.693Z,47.70
2023-05-01T20:15:25.855Z,47.95
2023-05-01T20:18:28.434Z,48.37
2023-05-01T20:21:31.503Z,48.80
2023-05-01T20:24:34.416Z,48.83
2023-05-01T20:27:38.225Z,48.92
2023-05-01T20:30:43.000Z,49.22
2023-05-01T20:33:45.686Z,51.31
2023-05-01T20:36:48.360Z,50.12
2023-05-01T20:39:50.629Z,50.18
2023-05-01T20:42:53.712Z,50.75
2023-05-01T20:45:56.236Z,50.62
2023-05-01T20:48:58.769Z,51.06
2023-05-01T20:52:01.023Z,52.58
2023-05-01T20:55:04.088Z,51.83
2023-05-01T20:58:07.284Z,51.94
2023-05-01T21:01:10.668Z,51.81
2023-05-01T21:04:13.630Z,52.24
2023-05-01T21:07:19.082Z,52.56
2023-05-01T21:10:21.452Z,53.74
2023-05-01T21:13:26.384Z,53.12
2023-05-01T21:16:29.046Z,52.88
2023-05-01T21:19:38.001Z,52.88
2023-05-01T21:22:40.579Z,54.67
2023-05-01T21:25:43.378Z,55.50
2023-05-01T21:28:46.051Z,55.26
2023-05-01T21:31:49.161Z,56.67
2023-05-01T21:34:52.567Z,57.00
2023-05-01T21:37:55.299Z,58.42
2023-05-01T21:40:57.774Z,58.38
2023-05-01T21:44:02.503Z,57.88
2023-05-01T21:47:05.630Z,59.27
2023-05-01T21:50:10.964Z,61.35
2023-05-01T21:53:13.398Z,61.48
2023-05-01T21:56:16.049Z,61.65
2023-05-01T21:59:18.681Z,61.33
2023-05-01T22:02:21.302Z,63.77
2023-05-01T22:05:23.896Z,63.97
2023-05-01T22:08:26.238Z,65.31
2023-05-01T22:11:29.443Z,66.57
2023-05-01T22:14:46.233Z,68.46
2023-05-01T22:17:50.005Z,67.28
2023-05-01T22:20:52.601Z,67.83
2023-05-01T22:23:55.651Z,67.31
2023-05-01T22:26:57.922Z,67.42
2023-05-01T22:30:01.103Z,67.91
2023-05-01T22:33:03.841Z,69.17
2023-05-01T22:36:07.773Z,70.64
2023-05-01T22:39:10.156Z,70.55
2023-05-01T22:42:12.874Z,72.08
2023-05-01T22:45:15.538Z,73.62
2023-05-01T22:48:18.243Z,74.24
2023-05-01T22:51:20.721Z,74.28
2023-05-01T22:54:23.820Z,74.35
2023-05-01T22:57:26.287Z,73.36
2023-05-01T23:00:29.873Z,72.46
2023-05-01T23:03:33.409Z,73.83
2023-05-01T23:06:37.695Z,74.17
2023-05-01T23:09:40.090Z,73.08
2023-05-01T23:12:43.809Z,74.04
2023-05-01T23:15:47.246Z,74.69
2023-05-01T23:18:50.148Z,73.81
2023-05-01T23:22:04.946Z,74.18
2023-05-01T23:25:07.816Z,75.52
2023-05-01T23:28:10.629Z,75.93
2023-05-01T23:31:21.093Z,75.08
2023-05-01T23:34:24.229Z,77.54
2023-05-01T23:37:26.919Z,78.35
2023-05-01T23:40:29.692Z,78.24
2023-05-01T23:43:33.109Z,78.69
2023-05-01T23:46:35.969Z,80.08
2023-05-01T23:49:38.641Z,79.00
2023-05-01T23:52:40.931Z,80.12
2023-05-01T23:55:46.055Z,78.83
2023-05-01T23:58:49.165Z,76.75
